Barcarin 5 — FGG8903 — position and weather

sailwx.info

Track history (hours):
 
Tides and Currents Weather Stations Pressure Air Temp Water Temp Dewpoint Dewpoint Depression Visibility Wind Speed Wind Dir Waves Ship Positions

Barcarin 5

Last reported at 2016-Dec-09 08:33 UTC. Time now 2016-Dec-09 11:36 UTC.
Position N 43°25' E 004°45'.

Length 46 m.

Type: Other ship. MMSI: 227059260.

Date/timePositionNaut miles runAvg speedWind from/ knotsBaromVisibWave heightAir tempDewpointWater temp
2016-Dec-09 08:33N 43°25' E 004°45'0 0.0
2016-Dec-09 07:09N 43°25' E 004°45'0 0.0
2016-Dec-09 05:19N 43°25' E 004°45'3 0.2
2016-Dec-08 13:33N 43°23' E 004°48'0 0.0
2016-Dec-08 12:34N 43°23' E 004°48'0 0.0
2016-Dec-08 11:34N 43°23' E 004°48'3 0.3
2016-Dec-08 01:13N 43°25' E 004°45'0 0.0
2016-Dec-07 06:14N 43°25' E 004°45'0 0.0
2016-Dec-07 04:15N 43°25' E 004°45'0 0.0
2016-Dec-07 02:15N 43°25' E 004°45'0 0.0
2016-Dec-07 00:15N 43°25' E 004°45'0 0.0
2016-Dec-06 20:16N 43°25' E 004°45'0 0.0
2016-Dec-06 18:16N 43°25' E 004°45'1 0.6
2016-Dec-06 16:17N 43°24' E 004°46'2 1.2
2016-Dec-06 14:33N 43°23' E 004°48'0 0.0
2016-Dec-06 12:17N 43°23' E 004°48'0 0.0
2016-Dec-06 10:18N 43°23' E 004°48'0 0.0
2016-Dec-06 08:18N 43°23' E 004°48'3 1.7
2016-Dec-06 06:18N 43°25' E 004°45'0 0.0
2016-Dec-06 04:19N 43°25' E 004°45'0 0.0
2016-Dec-06 02:19N 43°25' E 004°45'0 0.0
2016-Dec-06 00:19N 43°25' E 004°45'0 0.0
2016-Dec-05 22:20N 43°25' E 004°45'0 0.0
2016-Dec-05 20:20N 43°25' E 004°45'0 0.0
2016-Dec-05 18:20N 43°25' E 004°45'0 0.0
2016-Dec-05 16:21N 43°25' E 004°45'3 1.7
2016-Dec-05 14:21N 43°23' E 004°48'0 0.0
2016-Dec-05 12:21N 43°23' E 004°48'0 0.0
2016-Dec-05 10:22N 43°23' E 004°48'2 1.0
2016-Dec-05 08:22N 43°24' E 004°46'1 0.7
2016-Dec-05 06:22N 43°25' E 004°45'0 0.0
2016-Dec-05 04:23N 43°25' E 004°45'0 0.0
2016-Dec-05 02:23N 43°25' E 004°45'0 0.0
2016-Dec-05 00:23N 43°25' E 004°45'0 0.0
2016-Dec-04 20:24N 43°25' E 004°45'0 0.0
2016-Dec-04 16:25N 43°25' E 004°45'0 0.0
2016-Dec-04 14:25N 43°25' E 004°45'0 0.0
2016-Dec-04 12:25N 43°25' E 004°45'0 0.0
2016-Dec-04 10:26N 43°25' E 004°45'0 0.1
2016-Dec-04 08:26N 43°25' E 004°45'0 0.1
2016-Dec-04 06:26N 43°25' E 004°45'0 0.0
2016-Dec-04 04:27N 43°25' E 004°45'0 0.1
2016-Dec-04 02:27N 43°25' E 004°45'0 0.1
2016-Dec-04 00:27N 43°25' E 004°45'0 0.0
2016-Dec-03 22:28N 43°25' E 004°45'0 0.0
2016-Dec-03 20:28N 43°25' E 004°45'0 0.0
2016-Dec-03 18:28N 43°25' E 004°45'0 0.0
2016-Dec-03 16:29N 43°25' E 004°45'0 0.0
2016-Dec-03 14:29N 43°25' E 004°45'0 0.0
2016-Dec-03 12:29N 43°25' E 004°45'0 0.1
2016-Dec-03 10:30N 43°25' E 004°45'0 0.0
2016-Dec-03 08:30N 43°25' E 004°45'0 0.1
2016-Dec-03 06:30N 43°25' E 004°45'0 0.0
2016-Dec-03 04:31N 43°25' E 004°45'0 0.1
2016-Dec-03 02:31N 43°25' E 004°45'0 0.0
2016-Dec-02 22:32N 43°25' E 004°45'0 0.0
2016-Dec-02 20:32N 43°25' E 004°45'0 0.0
2016-Dec-02 18:32N 43°25' E 004°45'0 0.1
2016-Dec-02 16:33N 43°25' E 004°45'0 0.1
2016-Dec-02 14:33N 43°25' E 004°45'0 0.0
2016-Dec-02 12:33N 43°25' E 004°45'0 0.0
2016-Dec-02 10:33N 43°25' E 004°45'0 0.1
2016-Dec-02 08:33N 43°25' E 004°45'0 0.1
2016-Dec-02 06:33N 43°25' E 004°45'0 0.0
2016-Dec-02 04:33N 43°25' E 004°45'0 0.0
2016-Dec-02 02:34N 43°25' E 004°45'0 0.0
2016-Dec-02 00:33N 43°25' E 004°45'0 0.0
2016-Dec-01 20:33N 43°25' E 004°45'0 0.0
2016-Dec-01 18:33N 43°25' E 004°45'0 0.0
2016-Dec-01 16:18N 43°25' E 004°45'0 0.1
2016-Dec-01 14:33N 43°25' E 004°45'0 0.0
2016-Dec-01 10:33N 43°25' E 004°45'0 0.0
2016-Dec-01 08:33N 43°25' E 004°45'0 0.0
2016-Nov-30 16:08N 43°25' E 004°45'0 0.0
2016-Nov-30 12:33N 43°25' E 004°45'0 0.0
2016-Nov-30 11:33N 43°25' E 004°45'  
Track history (hours):
 
Tides and Currents Weather Stations Pressure Air Temp Water Temp Dewpoint Dewpoint Depression Visibility Wind Speed Wind Dir Waves Ship Positions

Barcarin 5

Last reported at 2016-Dec-09 08:33 UTC. Time now 2016-Dec-09 11:36 UTC.
Position N 43°25' E 004°45'.

Length 46 m.

Type: Other ship. MMSI: 227059260.

Date/timePositionNaut miles runAvg speedWind from/ knotsBaromVisibWave heightAir tempDewpointWater temp
2016-Dec-09 08:33N 43°25' E 004°45'0 0.0
2016-Dec-09 07:09N 43°25' E 004°45'0 0.0
2016-Dec-09 05:19N 43°25' E 004°45'3 0.2
2016-Dec-08 13:33N 43°23' E 004°48'0 0.0
2016-Dec-08 12:34N 43°23' E 004°48'0 0.0
2016-Dec-08 11:34N 43°23' E 004°48'3 0.3
2016-Dec-08 01:13N 43°25' E 004°45'0 0.0
2016-Dec-07 06:14N 43°25' E 004°45'0 0.0
2016-Dec-07 04:15N 43°25' E 004°45'0 0.0
2016-Dec-07 02:15N 43°25' E 004°45'0 0.0
2016-Dec-07 00:15N 43°25' E 004°45'0 0.0
2016-Dec-06 20:16N 43°25' E 004°45'0 0.0
2016-Dec-06 18:16N 43°25' E 004°45'1 0.6
2016-Dec-06 16:17N 43°24' E 004°46'2 1.2
2016-Dec-06 14:33N 43°23' E 004°48'0 0.0
2016-Dec-06 12:17N 43°23' E 004°48'0 0.0
2016-Dec-06 10:18N 43°23' E 004°48'0 0.0
2016-Dec-06 08:18N 43°23' E 004°48'3 1.7
2016-Dec-06 06:18N 43°25' E 004°45'0 0.0
2016-Dec-06 04:19N 43°25' E 004°45'0 0.0
2016-Dec-06 02:19N 43°25' E 004°45'0 0.0
2016-Dec-06 00:19N 43°25' E 004°45'0 0.0
2016-Dec-05 22:20N 43°25' E 004°45'0 0.0
2016-Dec-05 20:20N 43°25' E 004°45'0 0.0
2016-Dec-05 18:20N 43°25' E 004°45'0 0.0
2016-Dec-05 16:21N 43°25' E 004°45'3 1.7
2016-Dec-05 14:21N 43°23' E 004°48'0 0.0
2016-Dec-05 12:21N 43°23' E 004°48'0 0.0
2016-Dec-05 10:22N 43°23' E 004°48'2 1.0
2016-Dec-05 08:22N 43°24' E 004°46'1 0.7
2016-Dec-05 06:22N 43°25' E 004°45'0 0.0
2016-Dec-05 04:23N 43°25' E 004°45'0 0.0
2016-Dec-05 02:23N 43°25' E 004°45'0 0.0
2016-Dec-05 00:23N 43°25' E 004°45'0 0.0
2016-Dec-04 20:24N 43°25' E 004°45'0 0.0
2016-Dec-04 16:25N 43°25' E 004°45'0 0.0
2016-Dec-04 14:25N 43°25' E 004°45'0 0.0
2016-Dec-04 12:25N 43°25' E 004°45'0 0.0
2016-Dec-04 10:26N 43°25' E 004°45'0 0.1
2016-Dec-04 08:26N 43°25' E 004°45'0 0.1
2016-Dec-04 06:26N 43°25' E 004°45'0 0.0
2016-Dec-04 04:27N 43°25' E 004°45'0 0.1
2016-Dec-04 02:27N 43°25' E 004°45'0 0.1
2016-Dec-04 00:27N 43°25' E 004°45'0 0.0
2016-Dec-03 22:28N 43°25' E 004°45'0 0.0
2016-Dec-03 20:28N 43°25' E 004°45'0 0.0
2016-Dec-03 18:28N 43°25' E 004°45'0 0.0
2016-Dec-03 16:29N 43°25' E 004°45'0 0.0
2016-Dec-03 14:29N 43°25' E 004°45'0 0.0
2016-Dec-03 12:29N 43°25' E 004°45'0 0.1
2016-Dec-03 10:30N 43°25' E 004°45'0 0.0
2016-Dec-03 08:30N 43°25' E 004°45'0 0.1
2016-Dec-03 06:30N 43°25' E 004°45'0 0.0
2016-Dec-03 04:31N 43°25' E 004°45'0 0.1
2016-Dec-03 02:31N 43°25' E 004°45'0 0.0
2016-Dec-02 22:32N 43°25' E 004°45'0 0.0
2016-Dec-02 20:32N 43°25' E 004°45'0 0.0
2016-Dec-02 18:32N 43°25' E 004°45'0 0.1
2016-Dec-02 16:33N 43°25' E 004°45'0 0.1
2016-Dec-02 14:33N 43°25' E 004°45'0 0.0
2016-Dec-02 12:33N 43°25' E 004°45'0 0.0
2016-Dec-02 10:33N 43°25' E 004°45'0 0.1
2016-Dec-02 08:33N 43°25' E 004°45'0 0.1
2016-Dec-02 06:33N 43°25' E 004°45'0 0.0
2016-Dec-02 04:33N 43°25' E 004°45'0 0.0
2016-Dec-02 02:34N 43°25' E 004°45'0 0.0
2016-Dec-02 00:33N 43°25' E 004°45'0 0.0
2016-Dec-01 20:33N 43°25' E 004°45'0 0.0
2016-Dec-01 18:33N 43°25' E 004°45'0 0.0
2016-Dec-01 16:18N 43°25' E 004°45'0 0.1
2016-Dec-01 14:33N 43°25' E 004°45'0 0.0
2016-Dec-01 10:33N 43°25' E 004°45'0 0.0
2016-Dec-01 08:33N 43°25' E 004°45'0 0.0
2016-Nov-30 16:08N 43°25' E 004°45'0 0.0
2016-Nov-30 12:33N 43°25' E 004°45'0 0.0
2016-Nov-30 11:33N 43°25' E 004°45'  

Dump ship's entire track history